sensor_id;sensor_type;location;lat;lon;timestamp;P1;P2;P0
48155;PMS5003;35568;48.104;11.782;2023-03-14T00:02:12;0;0;
48155;PMS5003;35568;48.104;11.782;2023-03-14T00:04:39;0;0;
48155;PMS5003;35568;48.104;11.782;2023-03-14T00:07:05;0;0;
48155;PMS5003;35568;48.104;11.782;2023-03-14T00:09:32;1;1;
48155;PMS5003;35568;48.104;11.782;2023-03-14T00:11:59;2;2;
48155;PMS5003;35568;48.104;11.782;2023-03-14T00:14:26;1;1;
48155;PMS5003;35568;48.104;11.782;2023-03-14T00:16:53;1;0;
48155;PMS5003;35568;48.104;11.782;2023-03-14T00:19:20;3;3;
48155;PMS5003;35568;48.104;11.782;2023-03-14T00:21:47;3;3;
48155;PMS5003;35568;48.104;11.782;2023-03-14T00:24:14;2;2;
48155;PMS5003;35568;48.104;11.782;2023-03-14T00:26:41;2;2;
48155;PMS5003;35568;48.104;11.782;2023-03-14T00:29:08;1;1;
48155;PMS5003;35568;48.104;11.782;2023-03-14T00:31:34;1;1;
48155;PMS5003;35568;48.104;11.782;2023-03-14T00:34:01;3;1;
48155;PMS5003;35568;48.104;11.782;2023-03-14T00:36:28;2;2;
48155;PMS5003;35568;48.104;11.782;2023-03-14T00:38:55;2;2;
48155;PMS5003;35568;48.104;11.782;2023-03-14T00:41:22;2;2;
48155;PMS5003;35568;48.104;11.782;2023-03-14T00:43:49;3;3;
48155;PMS5003;35568;48.104;11.782;2023-03-14T00:46:17;2;2;
48155;PMS5003;35568;48.104;11.782;2023-03-14T00:48:44;1;1;
48155;PMS5003;35568;48.104;11.782;2023-03-14T00:51:12;1;1;
48155;PMS5003;35568;48.104;11.782;2023-03-14T00:53:39;0;0;
48155;PMS5003;35568;48.104;11.782;2023-03-14T00:56:08;0;0;
48155;PMS5003;35568;48.104;11.782;2023-03-14T00:58:37;0;0;
48155;PMS5003;35568;48.104;11.782;2023-03-14T01:01:06;1;0;
48155;PMS5003;35568;48.104;11.782;2023-03-14T01:03:35;0;0;
48155;PMS5003;35568;48.104;11.782;2023-03-14T01:06:07;0;0;
48155;PMS5003;35568;48.104;11.782;2023-03-14T01:08:35;0;0;
48155;PMS5003;35568;48.104;11.782;2023-03-14T01:11:04;0;0;
48155;PMS5003;35568;48.104;11.782;2023-03-14T01:13:33;0;0;
48155;PMS5003;35568;48.104;11.782;2023-03-14T01:16:01;0;0;
48155;PMS5003;35568;48.104;11.782;2023-03-14T01:18:29;0;0;
48155;PMS5003;35568;48.104;11.782;2023-03-14T01:20:56;0;0;
48155;PMS5003;35568;48.104;11.782;2023-03-14T01:23:23;0;0;
48155;PMS5003;35568;48.104;11.782;2023-03-14T01:25:51;0;0;
48155;PMS5003;35568;48.104;11.782;2023-03-14T01:28:18;0;0;
48155;PMS5003;35568;48.104;11.782;2023-03-14T01:30:44;0;0;
48155;PMS5003;35568;48.104;11.782;2023-03-14T01:33:11;0;0;
48155;PMS5003;35568;48.104;11.782;2023-03-14T01:35:38;0;0;
48155;PMS5003;35568;48.104;11.782;2023-03-14T01:38:05;0;0;
48155;PMS5003;35568;48.104;11.782;2023-03-14T01:40:32;0;0;
48155;PMS5003;35568;48.104;11.782;2023-03-14T01:43:06;0;0;
48155;PMS5003;35568;48.104;11.782;2023-03-14T01:46:45;0;0;
48155;PMS5003;35568;48.104;11.782;2023-03-14T01:49:15;0;0;
48155;PMS5003;35568;48.104;11.782;2023-03-14T01:51:49;0;0;
48155;PMS5003;35568;48.104;11.782;2023-03-14T01:54:20;0;0;
48155;PMS5003;35568;48.104;11.782;2023-03-14T01:56:52;0;0;
48155;PMS5003;35568;48.104;11.782;2023-03-14T01:59:24;0;0;
48155;PMS5003;35568;48.104;11.782;2023-03-14T02:01:53;0;0;
48155;PMS5003;35568;48.104;11.782;2023-03-14T02:04:22;0;0;
48155;PMS5003;35568;48.104;11.782;2023-03-14T02:06:51;0;0;
48155;PMS5003;35568;48.104;11.782;2023-03-14T02:09:22;0;0;
48155;PMS5003;35568;48.104;11.782;2023-03-14T02:11:50;0;0;
48155;PMS5003;35568;48.104;11.782;2023-03-14T02:14:21;0;0;
48155;PMS5003;35568;48.104;11.782;2023-03-14T02:16:55;0;0;
48155;PMS5003;35568;48.104;11.782;2023-03-14T02:19:26;1;1;
48155;PMS5003;35568;48.104;11.782;2023-03-14T02:22:08;0;0;
48155;PMS5003;35568;48.104;11.782;2023-03-14T02:24:38;0;0;
48155;PMS5003;35568;48.104;11.782;2023-03-14T02:27:13;0;0;
48155;PMS5003;35568;48.104;11.782;2023-03-14T02:29:43;0;0;
48155;PMS5003;35568;48.104;11.782;2023-03-14T02:32:14;0;0;
48155;PMS5003;35568;48.104;11.782;2023-03-14T02:34:44;0;0;
48155;PMS5003;35568;48.104;11.782;2023-03-14T02:37:17;0;0;
48155;PMS5003;35568;48.104;11.782;2023-03-14T02:39:46;0;0;
48155;PMS5003;35568;48.104;11.782;2023-03-14T02:42:13;0;0;
48155;PMS5003;35568;48.104;11.782;2023-03-14T02:44:48;0;0;
48155;PMS5003;35568;48.104;11.782;2023-03-14T02:47:18;0;0;
48155;PMS5003;35568;48.104;11.782;2023-03-14T02:49:49;0;0;
48155;PMS5003;35568;48.104;11.782;2023-03-14T02:52:19;0;0;
48155;PMS5003;35568;48.104;11.782;2023-03-14T02:54:46;0;0;
48155;PMS5003;35568;48.104;11.782;2023-03-14T02:57:13;0;0;
48155;PMS5003;35568;48.104;11.782;2023-03-14T02:59:39;0;0;
48155;PMS5003;35568;48.104;11.782;2023-03-14T03:02:06;0;0;
48155;PMS5003;35568;48.104;11.782;2023-03-14T03:04:33;0;0;
48155;PMS5003;35568;48.104;11.782;2023-03-14T03:07:00;0;0;
48155;PMS5003;35568;48.104;11.782;2023-03-14T03:09:27;0;0;
48155;PMS5003;35568;48.104;11.782;2023-03-14T03:11:54;0;0;
48155;PMS5003;35568;48.104;11.782;2023-03-14T03:14:20;0;0;
48155;PMS5003;35568;48.104;11.782;2023-03-14T03:16:47;0;0;
48155;PMS5003;35568;48.104;11.782;2023-03-14T03:19:14;0;0;
48155;PMS5003;35568;48.104;11.782;2023-03-14T03:21:41;0;0;
48155;PMS5003;35568;48.104;11.782;2023-03-14T03:24:08;0;0;
48155;PMS5003;35568;48.104;11.782;2023-03-14T03:26:35;0;0;
48155;PMS5003;35568;48.104;11.782;2023-03-14T03:29:01;0;0;
48155;PMS5003;35568;48.104;11.782;2023-03-14T03:31:28;0;0;
48155;PMS5003;35568;48.104;11.782;2023-03-14T03:33:56;0;0;
48155;PMS5003;35568;48.104;11.782;2023-03-14T03:36:24;0;0;
48155;PMS5003;35568;48.104;11.782;2023-03-14T03:38:52;0;0;
48155;PMS5003;35568;48.104;11.782;2023-03-14T03:41:19;0;0;
48155;PMS5003;35568;48.104;11.782;2023-03-14T03:43:46;0;0;
48155;PMS5003;35568;48.104;11.782;2023-03-14T03:46:13;0;0;
48155;PMS5003;35568;48.104;11.782;2023-03-14T03:48:39;0;0;
48155;PMS5003;35568;48.104;11.782;2023-03-14T03:51:06;0;0;
48155;PMS5003;35568;48.104;11.782;2023-03-14T03:53:37;0;0;
48155;PMS5003;35568;48.104;11.782;2023-03-14T03:56:05;0;0;
48155;PMS5003;35568;48.104;11.782;2023-03-14T03:58:32;0;0;
48155;PMS5003;35568;48.104;11.782;2023-03-14T04:02:59;0;0;
48155;PMS5003;35568;48.104;11.782;2023-03-14T04:05:26;0;0;
48155;PMS5003;35568;48.104;11.782;2023-03-14T04:07:52;0;0;
48155;PMS5003;35568;48.104;11.782;2023-03-14T04:10:19;0;0;
48155;PMS5003;35568;48.104;11.782;2023-03-14T04:12:46;0;0;
48155;PMS5003;35568;48.104;11.782;2023-03-14T04:15:13;0;0;
48155;PMS5003;35568;48.104;11.782;2023-03-14T04:17:40;0;0;
48155;PMS5003;35568;48.104;11.782;2023-03-14T04:20:07;0;0;
48155;PMS5003;35568;48.104;11.782;2023-03-14T04:22:35;0;0;
48155;PMS5003;35568;48.104;11.782;2023-03-14T04:25:02;0;0;
48155;PMS5003;35568;48.104;11.782;2023-03-14T04:27:30;0;0;
48155;PMS5003;35568;48.104;11.782;2023-03-14T04:29:56;0;0;
48155;PMS5003;35568;48.104;11.782;2023-03-14T04:32:23;0;0;
48155;PMS5003;35568;48.104;11.782;2023-03-14T04:34:50;0;0;
48155;PMS5003;35568;48.104;11.782;2023-03-14T04:37:17;0;0;
48155;PMS5003;35568;48.104;11.782;2023-03-14T04:39:44;0;0;
48155;PMS5003;35568;48.104;11.782;2023-03-14T04:42:11;0;0;
48155;PMS5003;35568;48.104;11.782;2023-03-14T04:44:38;0;0;
48155;PMS5003;35568;48.104;11.782;2023-03-14T04:47:04;0;0;
48155;PMS5003;35568;48.104;11.782;2023-03-14T04:49:31;0;0;
48155;PMS5003;35568;48.104;11.782;2023-03-14T04:51:58;0;0;
48155;PMS5003;35568;48.104;11.782;2023-03-14T04:54:25;0;0;
48155;PMS5003;35568;48.104;11.782;2023-03-14T04:56:52;0;0;
48155;PMS5003;35568;48.104;11.782;2023-03-14T04:59:19;0;0;
48155;PMS5003;35568;48.104;11.782;2023-03-14T05:01:46;0;0;
48155;PMS5003;35568;48.104;11.782;2023-03-14T05:04:12;0;0;
48155;PMS5003;35568;48.104;11.782;2023-03-14T05:06:39;0;0;
48155;PMS5003;35568;48.104;11.782;2023-03-14T05:09:06;0;0;
48155;PMS5003;35568;48.104;11.782;2023-03-14T05:11:33;0;0;
48155;PMS5003;35568;48.104;11.782;2023-03-14T05:14:00;0;0;
48155;PMS5003;35568;48.104;11.782;2023-03-14T05:16:26;0;0;
48155;PMS5003;35568;48.104;11.782;2023-03-14T05:18:54;0;0;
48155;PMS5003;35568;48.104;11.782;2023-03-14T05:21:20;0;0;
48155;PMS5003;35568;48.104;11.782;2023-03-14T05:23:47;0;0;
48155;PMS5003;35568;48.104;11.782;2023-03-14T05:26:14;0;0;
48155;PMS5003;35568;48.104;11.782;2023-03-14T05:28:41;0;0;
48155;PMS5003;35568;48.104;11.782;2023-03-14T05:31:08;0;0;
48155;PMS5003;35568;48.104;11.782;2023-03-14T05:33:35;0;0;
48155;PMS5003;35568;48.104;11.782;2023-03-14T05:36:02;0;0;
48155;PMS5003;35568;48.104;11.782;2023-03-14T05:38:30;0;0;
48155;PMS5003;35568;48.104;11.782;2023-03-14T05:40:57;0;0;
48155;PMS5003;35568;48.104;11.782;2023-03-14T05:43:23;0;0;
48155;PMS5003;35568;48.104;11.782;2023-03-14T05:45:50;0;0;
48155;PMS5003;35568;48.104;11.782;2023-03-14T05:48:17;0;0;
48155;PMS5003;35568;48.104;11.782;2023-03-14T05:50:44;0;0;
48155;PMS5003;35568;48.104;11.782;2023-03-14T05:53:11;0;0;
48155;PMS5003;35568;48.104;11.782;2023-03-14T05:55:38;0;0;
48155;PMS5003;35568;48.104;11.782;2023-03-14T05:58:05;0;0;
48155;PMS5003;35568;48.104;11.782;2023-03-14T06:00:31;0;0;
48155;PMS5003;35568;48.104;11.782;2023-03-14T06:02:58;0;0;
48155;PMS5003;35568;48.104;11.782;2023-03-14T06:05:25;0;0;
48155;PMS5003;35568;48.104;11.782;2023-03-14T06:07:52;0;0;
48155;PMS5003;35568;48.104;11.782;2023-03-14T06:10:19;0;0;
48155;PMS5003;35568;48.104;11.782;2023-03-14T06:12:46;0;0;
48155;PMS5003;35568;48.104;11.782;2023-03-14T06:15:13;0;0;
48155;PMS5003;35568;48.104;11.782;2023-03-14T06:17:39;0;0;
48155;PMS5003;35568;48.104;11.782;2023-03-14T06:20:07;0;0;
48155;PMS5003;35568;48.104;11.782;2023-03-14T06:22:35;0;0;
48155;PMS5003;35568;48.104;11.782;2023-03-14T06:25:02;0;0;
48155;PMS5003;35568;48.104;11.782;2023-03-14T06:27:29;0;0;
48155;PMS5003;35568;48.104;11.782;2023-03-14T06:29:56;0;0;
48155;PMS5003;35568;48.104;11.782;2023-03-14T06:32:23;0;0;
48155;PMS5003;35568;48.104;11.782;2023-03-14T06:34:51;0;0;
48155;PMS5003;35568;48.104;11.782;2023-03-14T06:37:18;0;0;
48155;PMS5003;35568;48.104;11.782;2023-03-14T06:39:44;1;1;
48155;PMS5003;35568;48.104;11.782;2023-03-14T06:42:11;0;0;
48155;PMS5003;35568;48.104;11.782;2023-03-14T06:44:38;0;0;
48155;PMS5003;35568;48.104;11.782;2023-03-14T06:47:05;0;0;
48155;PMS5003;35568;48.104;11.782;2023-03-14T06:49:32;1;1;
48155;PMS5003;35568;48.104;11.782;2023-03-14T06:51:59;2;2;
48155;PMS5003;35568;48.104;11.782;2023-03-14T06:54:26;2;2;
48155;PMS5003;35568;48.104;11.782;2023-03-14T06:56:52;2;2;
48155;PMS5003;35568;48.104;11.782;2023-03-14T06:59:19;2;2;
48155;PMS5003;35568;48.104;11.782;2023-03-14T07:01:46;2;2;
48155;PMS5003;35568;48.104;11.782;2023-03-14T07:04:13;5;5;
48155;PMS5003;35568;48.104;11.782;2023-03-14T07:06:40;2;2;
48155;PMS5003;35568;48.104;11.782;2023-03-14T07:09:07;3;3;
48155;PMS5003;35568;48.104;11.782;2023-03-14T07:11:34;5;4;
48155;PMS5003;35568;48.104;11.782;2023-03-14T07:14:00;7;7;
48155;PMS5003;35568;48.104;11.782;2023-03-14T07:16:27;3;2;
48155;PMS5003;35568;48.104;11.782;2023-03-14T07:18:54;1;1;
48155;PMS5003;35568;48.104;11.782;2023-03-14T07:21:21;1;1;
48155;PMS5003;35568;48.104;11.782;2023-03-14T07:23:48;1;1;
48155;PMS5003;35568;48.104;11.782;2023-03-14T07:26:15;1;1;
48155;PMS5003;35568;48.104;11.782;2023-03-14T07:28:42;0;0;
48155;PMS5003;35568;48.104;11.782;2023-03-14T07:31:09;0;0;
48155;PMS5003;35568;48.104;11.782;2023-03-14T07:33:36;0;0;
48155;PMS5003;35568;48.104;11.782;2023-03-14T07:36:03;0;0;
48155;PMS5003;35568;48.104;11.782;2023-03-14T07:38:31;0;0;
48155;PMS5003;35568;48.104;11.782;2023-03-14T07:38:31;0;0;
48155;PMS5003;35568;48.104;11.782;2023-03-14T07:40:58;0;0;
48155;PMS5003;35568;48.104;11.782;2023-03-14T07:43:26;0;0;
48155;PMS5003;35568;48.104;11.782;2023-03-14T07:45:53;1;1;
48155;PMS5003;35568;48.104;11.782;2023-03-14T07:48:20;0;0;
48155;PMS5003;35568;48.104;11.782;2023-03-14T07:50:48;2;2;
48155;PMS5003;35568;48.104;11.782;2023-03-14T07:53:14;0;0;
48155;PMS5003;35568;48.104;11.782;2023-03-14T07:55:41;1;1;
48155;PMS5003;35568;48.104;11.782;2023-03-14T07:58:08;0;0;
48155;PMS5003;35568;48.104;11.782;2023-03-14T08:00:36;0;0;
48155;PMS5003;35568;48.104;11.782;2023-03-14T08:03:02;0;0;
48155;PMS5003;35568;48.104;11.782;2023-03-14T08:05:30;0;0;
48155;PMS5003;35568;48.104;11.782;2023-03-14T08:08:00;0;0;
48155;PMS5003;35568;48.104;11.782;2023-03-14T08:10:26;0;0;
48155;PMS5003;35568;48.104;11.782;2023-03-14T08:12:54;0;0;
48155;PMS5003;35568;48.104;11.782;2023-03-14T08:15:22;0;0;
48155;PMS5003;35568;48.104;11.782;2023-03-14T08:17:50;0;0;
48155;PMS5003;35568;48.104;11.782;2023-03-14T08:20:17;0;0;
48155;PMS5003;35568;48.104;11.782;2023-03-14T08:22:44;0;0;
48155;PMS5003;35568;48.104;11.782;2023-03-14T08:25:11;0;0;
48155;PMS5003;35568;48.104;11.782;2023-03-14T08:27:39;0;0;
48155;PMS5003;35568;48.104;11.782;2023-03-14T08:30:08;0;0;
48155;PMS5003;35568;48.104;11.782;2023-03-14T08:32:37;0;0;
48155;PMS5003;35568;48.104;11.782;2023-03-14T08:35:05;0;0;
48155;PMS5003;35568;48.104;11.782;2023-03-14T08:37:33;1;1;
48155;PMS5003;35568;48.104;11.782;2023-03-14T08:40:01;0;0;
48155;PMS5003;35568;48.104;11.782;2023-03-14T08:42:28;0;0;
48155;PMS5003;35568;48.104;11.782;2023-03-14T08:44:55;2;2;
48155;PMS5003;35568;48.104;11.782;2023-03-14T08:47:22;1;1;
48155;PMS5003;35568;48.104;11.782;2023-03-14T08:49:49;0;0;
48155;PMS5003;35568;48.104;11.782;2023-03-14T08:52:16;1;1;
48155;PMS5003;35568;48.104;11.782;2023-03-14T08:54:44;0;0;
48155;PMS5003;35568;48.104;11.782;2023-03-14T08:57:11;0;0;
48155;PMS5003;35568;48.104;11.782;2023-03-14T08:59:38;0;0;
48155;PMS5003;35568;48.104;11.782;2023-03-14T09:02:05;0;0;
48155;PMS5003;35568;48.104;11.782;2023-03-14T09:04:32;0;0;
48155;PMS5003;35568;48.104;11.782;2023-03-14T09:06:59;0;0;
48155;PMS5003;35568;48.104;11.782;2023-03-14T09:09:27;0;0;
48155;PMS5003;35568;48.104;11.782;2023-03-14T09:11:54;0;0;
48155;PMS5003;35568;48.104;11.782;2023-03-14T09:14:21;1;1;
48155;PMS5003;35568;48.104;11.782;2023-03-14T09:16:48;1;1;
48155;PMS5003;35568;48.104;11.782;2023-03-14T09:19:15;3;2;
48155;PMS5003;35568;48.104;11.782;2023-03-14T09:21:41;1;1;
48155;PMS5003;35568;48.104;11.782;2023-03-14T09:24:08;1;1;
48155;PMS5003;35568;48.104;11.782;2023-03-14T09:26:35;0;0;
48155;PMS5003;35568;48.104;11.782;2023-03-14T09:29:02;0;0;
48155;PMS5003;35568;48.104;11.782;2023-03-14T09:31:29;0;0;
48155;PMS5003;35568;48.104;11.782;2023-03-14T09:33:55;0;0;
48155;PMS5003;35568;48.104;11.782;2023-03-14T09:36:22;0;0;
48155;PMS5003;35568;48.104;11.782;2023-03-14T09:38:49;3;2;
48155;PMS5003;35568;48.104;11.782;2023-03-14T09:41:17;3;3;
48155;PMS5003;35568;48.104;11.782;2023-03-14T09:44:00;1;1;
48155;PMS5003;35568;48.104;11.782;2023-03-14T09:46:31;1;1;
48155;PMS5003;35568;48.104;11.782;2023-03-14T09:49:02;3;3;
48155;PMS5003;35568;48.104;11.782;2023-03-14T09:51:37;8;6;
48155;PMS5003;35568;48.104;11.782;2023-03-14T09:54:05;4;4;
48155;PMS5003;35568;48.104;11.782;2023-03-14T09:56:39;1;0;
48155;PMS5003;35568;48.104;11.782;2023-03-14T09:59:08;2;1;
48155;PMS5003;35568;48.104;11.782;2023-03-14T10:01:38;1;1;
48155;PMS5003;35568;48.104;11.782;2023-03-14T10:04:07;0;0;
48155;PMS5003;35568;48.104;11.782;2023-03-14T10:06:40;1;1;
48155;PMS5003;35568;48.104;11.782;2023-03-14T10:09:08;1;1;
48155;PMS5003;35568;48.104;11.782;2023-03-14T10:11:39;1;1;
48155;PMS5003;35568;48.104;11.782;2023-03-14T10:14:06;0;0;
48155;PMS5003;35568;48.104;11.782;2023-03-14T10:16:35;1;1;
48155;PMS5003;35568;48.104;11.782;2023-03-14T10:19:09;2;1;
48155;PMS5003;35568;48.104;11.782;2023-03-14T10:21:37;1;1;
48155;PMS5003;35568;48.104;11.782;2023-03-14T10:24:07;1;1;
48155;PMS5003;35568;48.104;11.782;2023-03-14T10:26:36;0;0;
48155;PMS5003;35568;48.104;11.782;2023-03-14T10:29:07;1;1;
48155;PMS5003;35568;48.104;11.782;2023-03-14T10:31:46;1;1;
48155;PMS5003;35568;48.104;11.782;2023-03-14T10:34:16;0;0;
48155;PMS5003;35568;48.104;11.782;2023-03-14T10:36:50;1;1;
48155;PMS5003;35568;48.104;11.782;2023-03-14T10:39:24;2;0;
48155;PMS5003;35568;48.104;11.782;2023-03-14T10:41:56;0;0;
48155;PMS5003;35568;48.104;11.782;2023-03-14T10:44:30;0;0;
48155;PMS5003;35568;48.104;11.782;2023-03-14T10:47:01;0;0;
48155;PMS5003;35568;48.104;11.782;2023-03-14T10:49:29;0;0;
48155;PMS5003;35568;48.104;11.782;2023-03-14T10:52:01;1;1;
48155;PMS5003;35568;48.104;11.782;2023-03-14T10:54:39;0;0;
48155;PMS5003;35568;48.104;11.782;2023-03-14T10:57:06;0;0;
48155;PMS5003;35568;48.104;11.782;2023-03-14T10:59:35;0;0;
48155;PMS5003;35568;48.104;11.782;2023-03-14T11:02:04;0;0;
48155;PMS5003;35568;48.104;11.782;2023-03-14T11:04:52;1;1;
48155;PMS5003;35568;48.104;11.782;2023-03-14T11:07:27;0;0;
48155;PMS5003;35568;48.104;11.782;2023-03-14T11:10:01;0;0;
48155;PMS5003;35568;48.104;11.782;2023-03-14T11:12:38;0;0;
48155;PMS5003;35568;48.104;11.782;2023-03-14T11:15:15;0;0;
48155;PMS5003;35568;48.104;11.782;2023-03-14T11:17:48;0;0;
48155;PMS5003;35568;48.104;11.782;2023-03-14T11:20:29;0;0;
48155;PMS5003;35568;48.104;11.782;2023-03-14T11:23:04;0;0;
48155;PMS5003;35568;48.104;11.782;2023-03-14T11:25:39;0;0;
48155;PMS5003;35568;48.104;11.782;2023-03-14T11:28:16;0;0;
48155;PMS5003;35568;48.104;11.782;2023-03-14T11:30:49;0;0;
48155;PMS5003;35568;48.104;11.782;2023-03-14T11:33:20;0;0;
48155;PMS5003;35568;48.104;11.782;2023-03-14T11:35:53;0;0;
48155;PMS5003;35568;48.104;11.782;2023-03-14T11:38:29;0;0;
48155;PMS5003;35568;48.104;11.782;2023-03-14T11:40:59;0;0;
48155;PMS5003;35568;48.104;11.782;2023-03-14T11:43:28;0;0;
48155;PMS5003;35568;48.104;11.782;2023-03-14T11:46:03;0;0;
48155;PMS5003;35568;48.104;11.782;2023-03-14T11:48:36;0;0;
48155;PMS5003;35568;48.104;11.782;2023-03-14T11:51:09;0;0;
48155;PMS5003;35568;48.104;11.782;2023-03-14T11:53:44;0;0;
48155;PMS5003;35568;48.104;11.782;2023-03-14T11:56:19;0;0;
48155;PMS5003;35568;48.104;11.782;2023-03-14T11:58:56;0;0;
48155;PMS5003;35568;48.104;11.782;2023-03-14T12:01:28;0;0;
48155;PMS5003;35568;48.104;11.782;2023-03-14T12:04:02;0;0;
48155;PMS5003;35568;48.104;11.782;2023-03-14T12:06:39;0;0;
48155;PMS5003;35568;48.104;11.782;2023-03-14T12:09:13;0;0;
48155;PMS5003;35568;48.104;11.782;2023-03-14T12:11:44;0;0;
48155;PMS5003;35568;48.104;11.782;2023-03-14T12:14:18;0;0;
48155;PMS5003;35568;48.104;11.782;2023-03-14T12:16:49;0;0;
48155;PMS5003;35568;48.104;11.782;2023-03-14T12:19:29;0;0;
48155;PMS5003;35568;48.104;11.782;2023-03-14T12:22:00;0;0;
48155;PMS5003;35568;48.104;11.782;2023-03-14T12:24:35;0;0;
48155;PMS5003;35568;48.104;11.782;2023-03-14T12:27:05;0;0;
48155;PMS5003;35568;48.104;11.782;2023-03-14T12:29:32;0;0;
48155;PMS5003;35568;48.104;11.782;2023-03-14T12:32:24;0;0;
48155;PMS5003;35568;48.104;11.782;2023-03-14T12:34:51;0;0;
48155;PMS5003;35568;48.104;11.782;2023-03-14T12:37:22;0;0;
48155;PMS5003;35568;48.104;11.782;2023-03-14T12:39:59;0;0;
48155;PMS5003;35568;48.104;11.782;2023-03-14T12:42:40;0;0;
48155;PMS5003;35568;48.104;11.782;2023-03-14T12:45:22;0;0;
48155;PMS5003;35568;48.104;11.782;2023-03-14T12:47:52;0;0;
48155;PMS5003;35568;48.104;11.782;2023-03-14T12:50:25;0;0;
48155;PMS5003;35568;48.104;11.782;2023-03-14T12:53:09;0;0;
48155;PMS5003;35568;48.104;11.782;2023-03-14T12:56:28;0;0;
48155;PMS5003;35568;48.104;11.782;2023-03-14T12:59:28;0;0;
48155;PMS5003;35568;48.104;11.782;2023-03-14T13:01:59;0;0;
48155;PMS5003;35568;48.104;11.782;2023-03-14T13:04:31;0;0;
48155;PMS5003;35568;48.104;11.782;2023-03-14T13:07:01;1;1;
48155;PMS5003;35568;48.104;11.782;2023-03-14T13:09:53;0;0;
48155;PMS5003;35568;48.104;11.782;2023-03-14T13:12:27;0;0;
48155;PMS5003;35568;48.104;11.782;2023-03-14T13:14:57;0;0;
48155;PMS5003;35568;48.104;11.782;2023-03-14T13:17:29;0;0;
48155;PMS5003;35568;48.104;11.782;2023-03-14T13:20:00;0;0;
48155;PMS5003;35568;48.104;11.782;2023-03-14T13:22:32;0;0;
48155;PMS5003;35568;48.104;11.782;2023-03-14T13:25:01;0;0;
48155;PMS5003;35568;48.104;11.782;2023-03-14T13:27:33;0;0;
48155;PMS5003;35568;48.104;11.782;2023-03-14T13:30:11;0;0;
48155;PMS5003;35568;48.104;11.782;2023-03-14T13:32:43;0;0;
48155;PMS5003;35568;48.104;11.782;2023-03-14T13:35:15;0;0;
48155;PMS5003;35568;48.104;11.782;2023-03-14T13:37:44;0;0;
48155;PMS5003;35568;48.104;11.782;2023-03-14T13:40:20;0;0;
48155;PMS5003;35568;48.104;11.782;2023-03-14T13:42:59;0;0;
48155;PMS5003;35568;48.104;11.782;2023-03-14T13:45:27;0;0;
48155;PMS5003;35568;48.104;11.782;2023-03-14T13:47:54;0;0;
48155;PMS5003;35568;48.104;11.782;2023-03-14T13:50:21;0;0;
48155;PMS5003;35568;48.104;11.782;2023-03-14T13:52:48;0;0;
48155;PMS5003;35568;48.104;11.782;2023-03-14T13:55:21;0;0;
48155;PMS5003;35568;48.104;11.782;2023-03-14T13:57:54;0;0;
48155;PMS5003;35568;48.104;11.782;2023-03-14T14:00:22;0;0;
48155;PMS5003;35568;48.104;11.782;2023-03-14T14:02:51;0;0;
48155;PMS5003;35568;48.104;11.782;2023-03-14T14:05:18;0;0;
48155;PMS5003;35568;48.104;11.782;2023-03-14T14:07:46;0;0;
48155;PMS5003;35568;48.104;11.782;2023-03-14T14:10:14;0;0;
48155;PMS5003;35568;48.104;11.782;2023-03-14T14:12:42;0;0;
48155;PMS5003;35568;48.104;11.782;2023-03-14T14:15:13;0;0;
48155;PMS5003;35568;48.104;11.782;2023-03-14T14:17:44;0;0;
48155;PMS5003;35568;48.104;11.782;2023-03-14T14:20:16;0;0;
48155;PMS5003;35568;48.104;11.782;2023-03-14T14:22:48;0;0;
48155;PMS5003;35568;48.104;11.782;2023-03-14T14:25:17;0;0;
48155;PMS5003;35568;48.104;11.782;2023-03-14T14:27:46;0;0;
48155;PMS5003;35568;48.104;11.782;2023-03-14T14:30:32;0;0;
48155;PMS5003;35568;48.104;11.782;2023-03-14T14:34:05;0;0;
48155;PMS5003;35568;48.104;11.782;2023-03-14T14:36:45;0;0;
48155;PMS5003;35568;48.104;11.782;2023-03-14T14:39:15;0;0;
48155;PMS5003;35568;48.104;11.782;2023-03-14T14:41:47;0;0;
48155;PMS5003;35568;48.104;11.782;2023-03-14T14:44:17;0;0;
48155;PMS5003;35568;48.104;11.782;2023-03-14T14:46:54;0;0;
48155;PMS5003;35568;48.104;11.782;2023-03-14T14:49:27;0;0;
48155;PMS5003;35568;48.104;11.782;2023-03-14T14:52:00;0;0;
48155;PMS5003;35568;48.104;11.782;2023-03-14T14:54:33;0;0;
48155;PMS5003;35568;48.104;11.782;2023-03-14T14:57:04;0;0;
48155;PMS5003;35568;48.104;11.782;2023-03-14T14:59:43;0;0;
48155;PMS5003;35568;48.104;11.782;2023-03-14T15:02:16;0;0;
48155;PMS5003;35568;48.104;11.782;2023-03-14T15:04:55;0;0;
48155;PMS5003;35568;48.104;11.782;2023-03-14T15:07:22;0;0;
48155;PMS5003;35568;48.104;11.782;2023-03-14T15:09:49;0;0;
48155;PMS5003;35568;48.104;11.782;2023-03-14T15:12:16;0;0;
48155;PMS5003;35568;48.104;11.782;2023-03-14T15:14:43;0;0;
48155;PMS5003;35568;48.104;11.782;2023-03-14T15:17:10;0;0;
48155;PMS5003;35568;48.104;11.782;2023-03-14T15:19:37;0;0;
48155;PMS5003;35568;48.104;11.782;2023-03-14T15:22:08;0;0;
48155;PMS5003;35568;48.104;11.782;2023-03-14T15:24:38;0;0;
48155;PMS5003;35568;48.104;11.782;2023-03-14T15:27:05;0;0;
48155;PMS5003;35568;48.104;11.782;2023-03-14T15:29:37;0;0;
48155;PMS5003;35568;48.104;11.782;2023-03-14T15:32:04;0;0;
48155;PMS5003;35568;48.104;11.782;2023-03-14T15:34:31;0;0;
48155;PMS5003;35568;48.104;11.782;2023-03-14T15:36:58;0;0;
48155;PMS5003;35568;48.104;11.782;2023-03-14T15:39:25;0;0;
48155;PMS5003;35568;48.104;11.782;2023-03-14T15:41:52;0;0;
48155;PMS5003;35568;48.104;11.782;2023-03-14T15:44:19;0;0;
48155;PMS5003;35568;48.104;11.782;2023-03-14T15:46:45;0;0;
48155;PMS5003;35568;48.104;11.782;2023-03-14T15:49:12;0;0;
48155;PMS5003;35568;48.104;11.782;2023-03-14T15:51:39;0;0;
48155;PMS5003;35568;48.104;11.782;2023-03-14T15:54:06;0;0;
48155;PMS5003;35568;48.104;11.782;2023-03-14T15:56:33;0;0;
48155;PMS5003;35568;48.104;11.782;2023-03-14T15:59:00;0;0;
48155;PMS5003;35568;48.104;11.782;2023-03-14T16:01:27;0;0;
48155;PMS5003;35568;48.104;11.782;2023-03-14T16:03:54;0;0;
48155;PMS5003;35568;48.104;11.782;2023-03-14T16:06:20;1;1;
48155;PMS5003;35568;48.104;11.782;2023-03-14T16:08:47;0;0;
48155;PMS5003;35568;48.104;11.782;2023-03-14T16:11:14;0;0;
48155;PMS5003;35568;48.104;11.782;2023-03-14T16:13:42;0;0;
48155;PMS5003;35568;48.104;11.782;2023-03-14T16:16:10;0;0;
48155;PMS5003;35568;48.104;11.782;2023-03-14T16:18:37;1;0;
48155;PMS5003;35568;48.104;11.782;2023-03-14T16:21:06;0;0;
48155;PMS5003;35568;48.104;11.782;2023-03-14T16:23:36;0;0;
48155;PMS5003;35568;48.104;11.782;2023-03-14T16:26:04;0;0;
48155;PMS5003;35568;48.104;11.782;2023-03-14T16:28:33;0;0;
48155;PMS5003;35568;48.104;11.782;2023-03-14T16:31:00;1;1;
48155;PMS5003;35568;48.104;11.782;2023-03-14T16:33:28;0;0;
48155;PMS5003;35568;48.104;11.782;2023-03-14T16:35:57;0;0;
48155;PMS5003;35568;48.104;11.782;2023-03-14T16:38:26;0;0;
48155;PMS5003;35568;48.104;11.782;2023-03-14T16:40:55;1;1;
48155;PMS5003;35568;48.104;11.782;2023-03-14T16:43:29;0;0;
48155;PMS5003;35568;48.104;11.782;2023-03-14T16:45:57;1;1;
48155;PMS5003;35568;48.104;11.782;2023-03-14T16:48:25;0;0;
48155;PMS5003;35568;48.104;11.782;2023-03-14T16:50:52;0;0;